Time;durP1;ratioP1;P1;durP2;ratioP2;P2;SDS_P1;SDS_P2;PMS_P1;PMS_P2;Temp;Humidity;BMP_temperature;BMP_pressure;BME280_temperature;BME280_humidity;BME280_pressure;Samples;Min_cycle;Max_cycle;Signal;HPM_P1;HPM_P2
2022/01/03 00:02:23;;;;;;;11.93;1.83;;;9.10;99.90;;;;;;5020775;28;37339;-59
2022/01/03 00:04:50;;;;;;;9.82;1.75;;;9.20;99.90;;;;;;5020354;28;38760;-59
2022/01/03 00:07:18;;;;;;;11.88;1.50;;;9.20;99.90;;;;;;5019910;28;36164;-59
2022/01/03 00:09:45;;;;;;;11.82;2.20;;;9.20;99.90;;;;;;5021431;28;36580;-60
2022/01/03 00:12:13;;;;;;;9.75;1.85;;;9.20;99.90;;;;;;5020825;28;37883;-59
2022/01/03 00:14:41;;;;;;;12.35;1.63;;;9.20;99.90;;;;;;5020525;28;37790;-59
2022/01/03 00:17:09;;;;;;;11.23;2.22;;;9.20;99.90;;;;;;5021714;28;36275;-60
2022/01/03 00:19:37;;;;;;;8.98;1.52;;;9.20;99.90;;;;;;5021308;28;35321;-59
2022/01/03 00:22:07;;;;;;;12.18;2.00;;;9.30;99.90;;;;;;5021307;28;40249;-59
2022/01/03 00:24:36;;;;;;;12.88;2.10;;;9.30;99.90;;;;;;5020560;28;38721;-59
2022/01/03 00:27:05;;;;;;;14.75;2.88;;;9.30;99.90;;;;;;5015653;28;37344;-59
2022/01/03 00:29:46;;;;;;;13.18;2.05;;;9.40;99.90;;;;;;5014973;28;36603;-59
2022/01/03 00:32:15;;;;;;;10.70;1.92;;;9.30;99.90;;;;;;5015507;28;37415;-59
2022/01/03 00:34:42;;;;;;;14.25;2.58;;;9.40;99.90;;;;;;5015091;28;37814;-59
2022/01/03 00:37:11;;;;;;;14.88;1.88;;;9.40;99.90;;;;;;5015084;28;37511;-59
2022/01/03 00:39:38;;;;;;;13.07;2.47;;;9.40;99.90;;;;;;5014128;28;36531;-59
2022/01/03 00:42:06;;;;;;;18.00;2.33;;;9.40;99.90;;;;;;5015800;28;39648;-59
2022/01/03 00:44:34;;;;;;;14.57;2.42;;;9.40;99.90;;;;;;5015033;28;37256;-59
2022/01/03 00:47:01;;;;;;;13.13;2.28;;;9.40;99.90;;;;;;5015896;28;37173;-59
2022/01/03 00:49:30;;;;;;;15.32;2.70;;;9.40;99.90;;;;;;5014593;28;35324;-59
2022/01/03 00:51:57;;;;;;;17.13;2.88;;;9.40;99.90;;;;;;5012926;28;37654;-59
2022/01/03 00:54:25;;;;;;;13.57;2.53;;;9.40;99.90;;;;;;5015482;28;37362;-59
2022/01/03 00:56:54;;;;;;;16.27;2.53;;;9.40;99.90;;;;;;5014057;28;38099;-59
2022/01/03 00:59:26;;;;;;;13.90;2.70;;;9.40;99.90;;;;;;5013504;28;36408;-59
2022/01/03 01:01:55;;;;;;;20.25;2.88;;;9.30;99.90;;;;;;5014830;28;36393;-59
2022/01/03 01:04:24;;;;;;;17.45;2.95;;;9.30;99.90;;;;;;5013858;28;36630;-59
2022/01/03 01:06:54;;;;;;;21.58;3.80;;;9.30;99.90;;;;;;5014726;28;38201;-59
2022/01/03 01:09:24;;;;;;;16.92;3.80;;;9.30;99.90;;;;;;5015351;28;36335;-59
2022/01/03 01:11:53;;;;;;;19.00;3.40;;;9.30;99.90;;;;;;5015790;28;37303;-59
2022/01/03 01:14:23;;;;;;;14.55;2.90;;;9.30;99.90;;;;;;5014637;28;37897;-59
2022/01/03 01:16:50;;;;;;;19.50;3.45;;;9.40;99.90;;;;;;5013750;28;36212;-59
2022/01/03 01:19:19;;;;;;;28.38;3.70;;;9.30;99.90;;;;;;5014959;28;38070;-59
2022/01/03 01:21:49;;;;;;;18.60;3.22;;;9.30;99.90;;;;;;5013458;28;38531;-59
2022/01/03 01:24:20;;;;;;;18.45;3.10;;;9.30;99.90;;;;;;5013592;28;36467;-59
2022/01/03 01:29:35;;;;;;;21.13;2.83;;;9.30;99.90;;;;;;5014128;28;37399;-59
2022/01/03 01:32:06;;;;;;;15.93;2.90;;;9.00;99.90;;;;;;5013406;28;38204;-59
2022/01/03 01:34:40;;;;;;;20.75;3.35;;;9.40;99.90;;;;;;5013670;28;37753;-59
2022/01/03 01:37:09;;;;;;;15.73;2.50;;;9.30;99.90;;;;;;5011840;28;37583;-59
2022/01/03 01:39:38;;;;;;;26.10;4.03;;;9.40;99.90;;;;;;5018501;28;36642;-59
2022/01/03 01:42:06;;;;;;;26.90;3.25;;;9.40;99.90;;;;;;5019551;28;36286;-59
2022/01/03 01:44:35;;;;;;;21.77;3.33;;;9.40;99.90;;;;;;5019867;28;37190;-59
2022/01/03 01:47:05;;;;;;;16.38;3.65;;;9.40;99.90;;;;;;5019943;28;36276;-59
2022/01/03 01:49:39;;;;;;;22.95;4.20;;;9.40;99.90;;;;;;5019597;28;36555;-59
2022/01/03 01:52:15;;;;;;;16.25;3.55;;;9.40;99.90;;;;;;5019541;28;37278;-59
2022/01/03 01:54:52;;;;;;;22.52;3.95;;;9.40;99.90;;;;;;5019821;28;38343;-59
2022/01/03 01:57:21;;;;;;;22.02;3.28;;;9.50;99.90;;;;;;5017758;28;37485;-59
2022/01/03 02:00:04;;;;;;;24.65;4.25;;;9.50;99.90;;;;;;5018153;28;36464;-59
2022/01/03 02:02:36;;;;;;;23.45;3.60;;;9.50;99.90;;;;;;5018830;28;38953;-59
2022/01/03 02:05:27;;;;;;;18.55;2.95;;;9.50;99.90;;;;;;5018362;28;38065;-59
2022/01/03 02:08:11;;;;;;;26.35;4.88;;;9.50;99.90;;;;;;5019109;28;37802;-59
2022/01/03 02:10:43;;;;;;;21.77;3.70;;;9.50;99.90;;;;;;5019660;28;38357;-59
2022/01/03 02:13:12;;;;;;;19.38;2.70;;;9.50;99.90;;;;;;5018927;28;38592;-59
2022/01/03 02:15:44;;;;;;;16.52;3.30;;;9.50;99.90;;;;;;5020054;28;37652;-58
2022/01/03 02:18:12;;;;;;;20.23;4.93;;;9.50;99.90;;;;;;5019821;28;37067;-59
2022/01/03 02:20:41;;;;;;;20.52;3.92;;;9.60;99.90;;;;;;5019277;28;37458;-59
2022/01/03 02:23:09;;;;;;;23.67;3.33;;;9.60;99.90;;;;;;5018525;28;41465;-59
2022/01/03 02:25:36;;;;;;;21.23;3.72;;;9.60;99.90;;;;;;5019309;28;38768;-59
2022/01/03 02:28:04;;;;;;;30.83;3.78;;;9.60;99.90;;;;;;5019037;28;36258;-59
2022/01/03 02:30:33;;;;;;;22.98;4.45;;;9.60;99.90;;;;;;5019308;28;35425;-58
2022/01/03 02:33:01;;;;;;;20.08;3.00;;;9.60;99.90;;;;;;5017422;28;38449;-59
2022/01/03 02:35:29;;;;;;;21.80;4.38;;;9.60;99.90;;;;;;5020782;28;36573;-59
2022/01/03 02:37:57;;;;;;;19.45;3.60;;;9.60;99.90;;;;;;5023181;28;37318;-59
2022/01/03 02:40:25;;;;;;;23.20;3.90;;;9.60;99.90;;;;;;5023611;28;37091;-59
2022/01/03 02:42:52;;;;;;;21.42;3.72;;;9.60;99.90;;;;;;5022427;28;39052;-59
2022/01/03 02:45:22;;;;;;;18.25;3.45;;;9.60;99.70;;;;;;5021912;28;39519;-58
2022/01/03 02:47:51;;;;;;;28.08;4.53;;;9.60;99.70;;;;;;5021326;28;37304;-59
2022/01/03 02:50:20;;;;;;;21.73;4.05;;;9.50;99.70;;;;;;5020527;28;36023;-59
2022/01/03 02:52:48;;;;;;;22.83;3.50;;;9.50;99.60;;;;;;5022392;28;37502;-59
2022/01/03 02:55:18;;;;;;;18.83;3.50;;;9.50;99.60;;;;;;5022038;28;38574;-59
2022/01/03 02:57:47;;;;;;;22.70;4.32;;;9.40;99.60;;;;;;5020112;28;37304;-59
2022/01/03 03:00:17;;;;;;;24.65;3.70;;;9.40;99.60;;;;;;5021652;28;37578;-58
2022/01/03 03:02:45;;;;;;;23.05;3.45;;;9.50;99.60;;;;;;5022114;28;37680;-59
2022/01/03 03:05:12;;;;;;;22.63;3.22;;;9.40;99.60;;;;;;5021853;28;37523;-59
2022/01/03 03:07:40;;;;;;;20.77;3.47;;;9.50;99.50;;;;;;5020929;28;38211;-59
2022/01/03 03:10:11;;;;;;;24.75;4.60;;;9.40;99.50;;;;;;5022205;28;36974;-59
2022/01/03 03:12:40;;;;;;;22.48;3.83;;;9.40;99.40;;;;;;5021741;28;40070;-59
2022/01/03 03:15:09;;;;;;;23.80;3.47;;;9.40;99.30;;;;;;5021462;28;36575;-58
2022/01/03 03:17:39;;;;;;;22.85;4.13;;;9.30;99.30;;;;;;5022704;28;37350;-59
2022/01/03 03:20:08;;;;;;;19.08;3.78;;;9.30;99.30;;;;;;5021240;28;37168;-59
2022/01/03 03:22:37;;;;;;;23.65;4.20;;;9.20;99.30;;;;;;5020895;28;36318;-59
2022/01/03 03:25:07;;;;;;;28.67;4.45;;;9.20;99.30;;;;;;5019974;28;39118;-58
2022/01/03 03:27:36;;;;;;;23.58;3.42;;;9.20;99.30;;;;;;5020281;28;37820;-58
2022/01/03 03:30:07;;;;;;;21.77;3.78;;;9.20;99.30;;;;;;5021001;28;35990;-59
2022/01/03 03:32:34;;;;;;;22.65;4.82;;;9.20;99.30;;;;;;5020978;28;37746;-59
2022/01/03 03:35:01;;;;;;;20.98;3.70;;;9.20;99.40;;;;;;5020852;28;36757;-59
2022/01/03 03:37:29;;;;;;;22.23;4.60;;;9.10;99.30;;;;;;5020724;28;38485;-59
2022/01/03 03:39:56;;;;;;;24.85;4.43;;;9.10;99.30;;;;;;5021274;28;36399;-59
2022/01/03 03:42:23;;;;;;;26.85;4.07;;;9.10;99.30;;;;;;5021820;28;36306;-59
2022/01/03 03:44:51;;;;;;;35.25;5.57;;;9.10;99.20;;;;;;5021496;28;38394;-59
2022/01/03 03:47:20;;;;;;;29.73;5.22;;;9.00;99.20;;;;;;5020440;28;38151;-58
2022/01/03 03:49:47;;;;;;;25.45;3.42;;;9.00;99.20;;;;;;5021587;28;36306;-58
2022/01/03 03:52:14;;;;;;;24.77;4.10;;;9.10;99.30;;;;;;5021791;28;36387;-59
2022/01/03 03:54:42;;;;;;;23.13;4.22;;;9.00;99.20;;;;;;5021712;28;38725;-58
2022/01/03 03:57:09;;;;;;;20.88;4.50;;;9.00;99.30;;;;;;5021400;28;37232;-58
2022/01/03 03:59:37;;;;;;;30.40;5.15;;;9.00;99.20;;;;;;5020971;28;36365;-59
2022/01/03 04:02:04;;;;;;;23.80;4.93;;;9.00;99.20;;;;;;5020415;28;38389;-59
2022/01/03 04:04:35;;;;;;;20.75;5.05;;;9.00;99.30;;;;;;5022791;28;20131;-58
2022/01/03 04:07:02;;;;;;;29.00;4.60;;;9.00;99.20;;;;;;5020275;28;36863;-58
2022/01/03 04:09:30;;;;;;;28.95;4.25;;;9.00;99.20;;;;;;5020820;28;36371;-58
2022/01/03 04:11:57;;;;;;;24.20;4.35;;;9.00;99.20;;;;;;5021536;28;37256;-58
2022/01/03 04:14:24;;;;;;;23.77;5.30;;;9.00;99.20;;;;;;5020861;28;39908;-58
2022/01/03 04:16:52;;;;;;;28.67;4.60;;;9.00;99.20;;;;;;5020824;28;37544;-59
2022/01/03 04:19:19;;;;;;;25.40;5.03;;;9.00;99.30;;;;;;5020810;28;36389;-58
2022/01/03 04:21:48;;;;;;;30.15;4.90;;;9.10;99.30;;;;;;5021119;28;39421;-59
2022/01/03 04:24:16;;;;;;;24.30;4.22;;;9.10;99.30;;;;;;5018584;28;38136;-58
2022/01/03 04:26:45;;;;;;;26.40;4.45;;;9.10;99.20;;;;;;5020416;28;37340;-59
2022/01/03 04:29:12;;;;;;;26.17;4.63;;;9.10;99.20;;;;;;5021172;28;35919;-58
2022/01/03 04:31:40;;;;;;;29.58;6.35;;;9.10;99.20;;;;;;5021486;28;38445;-58
2022/01/03 04:34:08;;;;;;;36.47;5.45;;;9.10;99.10;;;;;;5021107;28;36381;-58
2022/01/03 04:36:35;;;;;;;21.95;4.30;;;9.10;99.10;;;;;;5021553;28;36172;-58
2022/01/03 04:39:05;;;;;;;25.10;4.32;;;9.10;99.10;;;;;;5020312;28;36655;-58
2022/01/03 04:41:33;;;;;;;21.65;3.78;;;9.00;99.10;;;;;;5022392;28;36315;-59
2022/01/03 04:44:01;;;;;;;21.38;4.13;;;9.00;99.10;;;;;;5021019;28;38018;-59
2022/01/03 04:46:28;;;;;;;28.58;4.50;;;9.10;99.10;;;;;;5020258;28;37495;-59
2022/01/03 04:48:56;;;;;;;35.35;5.18;;;9.10;99.10;;;;;;5019874;28;37391;-58
2022/01/03 04:51:23;;;;;;;29.02;4.35;;;9.00;99.00;;;;;;5020320;28;37355;-59
2022/01/03 04:53:50;;;;;;;25.40;4.28;;;9.00;99.00;;;;;;5021147;28;37470;-58
2022/01/03 04:56:19;;;;;;;28.65;4.93;;;9.00;99.10;;;;;;5020597;28;37236;-58
2022/01/03 04:58:46;;;;;;;23.45;4.03;;;9.00;99.10;;;;;;5019642;28;36471;-58
2022/01/03 05:01:14;;;;;;;29.73;5.43;;;9.10;99.20;;;;;;5020375;28;36620;-59
2022/01/03 05:03:41;;;;;;;31.08;5.35;;;9.10;99.20;;;;;;5020168;28;37493;-59
2022/01/03 05:06:08;;;;;;;27.17;6.78;;;9.00;99.10;;;;;;5019339;28;37211;-59
2022/01/03 05:08:36;;;;;;;34.15;5.43;;;9.00;99.10;;;;;;5019747;28;36683;-59
2022/01/03 05:11:04;;;;;;;29.77;4.47;;;9.00;99.20;;;;;;5020209;28;38287;-58
2022/01/03 05:13:33;;;;;;;29.63;5.32;;;9.00;99.10;;;;;;5018852;28;37768;-59
2022/01/03 05:16:02;;;;;;;35.58;4.93;;;9.00;99.20;;;;;;5019747;28;38962;-59
2022/01/03 05:18:30;;;;;;;29.10;5.93;;;9.00;99.20;;;;;;5019288;28;36392;-59
2022/01/03 05:20:58;;;;;;;23.45;3.92;;;9.00;99.10;;;;;;5019709;28;37562;-58
2022/01/03 05:23:25;;;;;;;27.98;5.25;;;9.00;99.10;;;;;;5019100;28;37575;-58
2022/01/03 05:25:52;;;;;;;28.67;4.57;;;9.00;99.10;;;;;;5020028;28;37383;-59
2022/01/03 05:28:20;;;;;;;32.83;5.18;;;9.00;99.10;;;;;;5019935;28;36422;-58
2022/01/03 05:30:49;;;;;;;27.73;4.10;;;9.00;99.10;;;;;;5019333;28;37756;-58
2022/01/03 05:33:16;;;;;;;30.67;4.72;;;9.00;99.10;;;;;;5019271;28;39681;-58
2022/01/03 05:35:43;;;;;;;41.13;6.28;;;9.00;99.10;;;;;;5020227;28;36172;-59
2022/01/03 05:38:11;;;;;;;33.95;6.30;;;9.00;99.10;;;;;;5019165;28;36431;-58
2022/01/03 05:40:38;;;;;;;29.67;5.32;;;9.00;99.10;;;;;;5019676;28;37397;-58
2022/01/03 05:43:05;;;;;;;22.33;5.35;;;9.00;99.10;;;;;;5020194;28;37324;-59
2022/01/03 05:45:33;;;;;;;32.53;4.97;;;9.00;99.10;;;;;;5020171;28;37467;-58
2022/01/03 05:48:01;;;;;;;34.05;4.03;;;9.00;99.00;;;;;;5020060;28;35165;-59
2022/01/03 05:50:29;;;;;;;28.60;4.57;;;9.00;99.10;;;;;;5019699;28;36419;-58
2022/01/03 05:52:56;;;;;;;24.33;4.65;;;9.00;99.10;;;;;;5019636;28;37175;-58
2022/01/03 05:55:24;;;;;;;34.28;5.28;;;8.90;99.00;;;;;;5020287;28;39524;-58
2022/01/03 05:57:51;;;;;;;36.95;6.45;;;9.00;99.10;;;;;;5020276;28;35369;-59
2022/01/03 06:00:20;;;;;;;28.15;5.38;;;9.00;99.00;;;;;;5018432;28;37753;-59
2022/01/03 06:02:52;;;;;;;32.83;7.07;;;9.00;99.00;;;;;;5018810;28;38044;-58
2022/01/03 06:05:39;;;;;;;28.50;4.70;;;9.00;99.00;;;;;;5018907;28;38242;-58
2022/01/03 06:08:07;;;;;;;34.55;4.97;;;9.00;99.00;;;;;;5019257;28;35415;-58
2022/01/03 06:10:39;;;;;;;28.02;5.13;;;9.00;99.00;;;;;;5020931;28;36201;-58
2022/01/03 06:13:06;;;;;;;24.30;4.18;;;9.00;99.00;;;;;;5021737;28;37682;-58
2022/01/03 06:15:37;;;;;;;27.73;5.25;;;9.00;99.00;;;;;;5021289;28;37084;-58
2022/01/03 06:18:04;;;;;;;28.55;5.85;;;9.00;99.00;;;;;;5021953;28;37849;-58
2022/01/03 06:20:34;;;;;;;22.98;4.32;;;9.00;99.10;;;;;;5022320;28;36268;-58
2022/01/03 06:23:01;;;;;;;29.98;4.95;;;9.00;99.10;;;;;;5022467;28;38217;-59
2022/01/03 06:25:28;;;;;;;40.00;5.22;;;9.00;99.10;;;;;;5020321;28;37140;-58
2022/01/03 06:27:56;;;;;;;34.15;5.45;;;9.00;99.10;;;;;;5020907;28;36732;-58
2022/01/03 06:30:23;;;;;;;29.45;5.68;;;9.00;99.10;;;;;;5019047;28;38066;-58
2022/01/03 06:32:51;;;;;;;31.38;4.60;;;9.00;99.10;;;;;;5019836;28;36123;-58
2022/01/03 06:35:18;;;;;;;36.50;5.28;;;9.00;99.00;;;;;;5019596;28;37499;-58
2022/01/03 06:37:47;;;;;;;35.40;5.55;;;9.00;98.90;;;;;;5020325;28;37671;-58
2022/01/03 06:40:14;;;;;;;33.35;6.20;;;9.00;98.90;;;;;;5020393;28;38306;-58
2022/01/03 06:42:41;;;;;;;35.50;6.30;;;9.00;98.90;;;;;;5020275;28;37693;-58
2022/01/03 06:45:09;;;;;;;27.17;4.65;;;9.00;98.80;;;;;;5019705;28;38352;-58
2022/01/03 06:47:37;;;;;;;35.60;5.15;;;9.00;98.80;;;;;;5020524;28;37876;-58
2022/01/03 06:50:05;;;;;;;30.45;5.05;;;9.00;98.70;;;;;;5019554;28;37270;-58
2022/01/03 06:52:32;;;;;;;32.50;5.60;;;9.00;98.80;;;;;;5019307;28;38826;-58
2022/01/03 06:55:01;;;;;;;27.45;4.80;;;9.00;98.80;;;;;;5019500;28;38814;-58
2022/01/03 06:57:29;;;;;;;26.70;4.75;;;9.00;98.80;;;;;;5019140;28;38487;-58
2022/01/03 06:59:56;;;;;;;28.50;4.63;;;9.00;98.80;;;;;;5019490;28;38600;-58
2022/01/03 07:02:24;;;;;;;33.20;5.45;;;9.00;98.80;;;;;;5019782;28;39145;-58
2022/01/03 07:04:51;;;;;;;36.85;5.25;;;9.00;98.80;;;;;;5020551;28;37685;-58
2022/01/03 07:07:19;;;;;;;31.48;4.53;;;9.00;98.80;;;;;;5018816;28;36782;-58
2022/01/03 07:09:46;;;;;;;31.25;4.78;;;9.00;98.80;;;;;;5020362;28;36156;-58
2022/01/03 07:12:16;;;;;;;31.60;5.60;;;9.10;98.80;;;;;;5020152;28;37216;-58
2022/01/03 07:20:13;;;;;;;25.00;5.43;;;9.00;98.70;;;;;;5018459;28;38216;-58
2022/01/03 07:22:41;;;;;;;30.90;4.47;;;9.00;98.70;;;;;;5018842;28;37828;-58
2022/01/03 07:25:09;;;;;;;33.55;5.07;;;9.10;98.70;;;;;;5020145;28;35826;-58
2022/01/03 07:27:38;;;;;;;33.97;6.85;;;9.10;98.80;;;;;;5019710;28;36609;-58
2022/01/03 07:30:06;;;;;;;29.23;5.72;;;9.10;98.70;;;;;;5019539;28;38312;-58
2022/01/03 07:32:34;;;;;;;30.00;5.07;;;9.10;98.70;;;;;;5020191;28;37636;-58
2022/01/03 07:35:01;;;;;;;24.75;4.85;;;9.10;98.70;;;;;;5019970;28;36985;-58
2022/01/03 07:37:28;;;;;;;27.52;4.93;;;9.10;98.70;;;;;;5019387;28;36571;-58
2022/01/03 07:39:56;;;;;;;30.35;4.75;;;9.10;98.60;;;;;;5017974;28;36301;-58
2022/01/03 07:42:23;;;;;;;33.63;5.22;;;9.10;98.70;;;;;;5019355;28;37902;-58
2022/01/03 07:44:52;;;;;;;26.13;4.30;;;9.00;98.70;;;;;;5019148;28;37997;-58
2022/01/03 07:47:19;;;;;;;29.50;4.78;;;9.00;98.70;;;;;;5019122;28;37014;-58
2022/01/03 07:49:46;;;;;;;28.35;5.53;;;9.00;98.80;;;;;;5019539;28;36302;-58
2022/01/03 07:52:14;;;;;;;30.70;5.28;;;9.00;98.70;;;;;;5018390;28;38662;-58
2022/01/03 07:54:41;;;;;;;31.08;5.05;;;9.10;98.80;;;;;;5019824;28;37620;-58
2022/01/03 07:57:08;;;;;;;31.85;6.00;;;9.00;98.80;;;;;;5019202;28;36614;-58
2022/01/03 07:59:36;;;;;;;35.20;6.22;;;9.10;98.90;;;;;;5019060;28;38867;-58
2022/01/03 08:02:04;;;;;;;33.53;5.72;;;9.10;98.80;;;;;;5019471;28;37866;-58
2022/01/03 08:04:32;;;;;;;29.10;4.63;;;9.10;98.80;;;;;;5019048;28;37278;-58
2022/01/03 08:06:59;;;;;;;29.88;5.57;;;9.20;98.80;;;;;;5018570;28;37216;-58
2022/01/03 08:09:26;;;;;;;28.75;5.78;;;9.20;98.80;;;;;;5019384;28;37969;-58
2022/01/03 08:11:53;;;;;;;33.50;5.78;;;9.30;98.70;;;;;;5018307;28;36407;-58
2022/01/03 08:14:21;;;;;;;31.48;5.70;;;9.30;98.70;;;;;;5019208;28;38204;-58
2022/01/03 08:16:48;;;;;;;30.85;5.38;;;9.30;98.60;;;;;;5018631;28;37145;-58
2022/01/03 08:19:17;;;;;;;30.60;4.82;;;9.30;98.60;;;;;;5018439;28;37210;-58
2022/01/03 08:21:44;;;;;;;31.98;4.93;;;9.30;98.50;;;;;;5018403;28;39043;-58
2022/01/03 08:24:12;;;;;;;29.63;5.22;;;9.30;98.50;;;;;;5018419;28;37349;-58
2022/01/03 08:26:39;;;;;;;25.60;4.15;;;9.40;98.50;;;;;;5019804;28;35301;-58
2022/01/03 08:29:07;;;;;;;31.85;5.63;;;9.40;98.50;;;;;;5019037;28;36945;-58
2022/01/03 08:31:34;;;;;;;20.23;3.72;;;9.40;98.40;;;;;;5019566;28;37861;-58
2022/01/03 08:34:01;;;;;;;32.85;4.95;;;9.40;98.50;;;;;;5020086;28;36199;-58
2022/01/03 08:36:30;;;;;;;36.03;5.50;;;9.40;98.40;;;;;;5019669;28;36635;-58
2022/01/03 08:38:58;;;;;;;23.83;5.35;;;9.40;98.40;;;;;;5019037;28;36375;-58
2022/01/03 08:41:25;;;;;;;28.20;4.38;;;9.40;98.50;;;;;;5018873;28;38369;-58
2022/01/03 08:43:54;;;;;;;29.95;4.75;;;9.40;98.40;;;;;;5017990;28;38693;-58
2022/01/03 08:46:23;;;;;;;30.92;5.15;;;9.50;98.40;;;;;;5018473;28;36594;-58
2022/01/03 08:48:51;;;;;;;33.92;6.00;;;9.50;98.30;;;;;;5018579;28;37680;-58
2022/01/03 08:51:18;;;;;;;35.38;5.10;;;9.50;98.30;;;;;;5018542;28;37635;-59
2022/01/03 08:53:47;;;;;;;34.33;5.95;;;9.50;98.30;;;;;;5018212;28;36124;-59
2022/01/03 08:56:14;;;;;;;28.45;5.00;;;9.60;98.20;;;;;;5017875;28;36986;-58
2022/01/03 08:58:42;;;;;;;27.38;4.85;;;9.60;98.30;;;;;;5018236;28;37574;-58
2022/01/03 09:01:09;;;;;;;25.90;4.68;;;9.70;98.20;;;;;;5017868;28;37675;-59
2022/01/03 09:03:36;;;;;;;34.58;6.68;;;9.70;98.10;;;;;;5018180;28;36087;-59
2022/01/03 09:06:04;;;;;;;38.50;5.55;;;9.70;98.10;;;;;;5016924;28;37877;-59
2022/01/03 09:08:32;;;;;;;27.98;5.32;;;9.70;98.00;;;;;;5016384;28;37612;-59
2022/01/03 09:11:00;;;;;;;30.30;5.20;;;9.70;98.00;;;;;;5018916;28;37580;-59
2022/01/03 09:13:28;;;;;;;33.03;5.63;;;9.80;98.10;;;;;;5017765;28;37900;-59
2022/01/03 09:15:55;;;;;;;30.75;5.32;;;9.80;98.00;;;;;;5018013;28;36555;-59
2022/01/03 09:18:25;;;;;;;24.40;4.47;;;9.90;97.80;;;;;;5017485;28;37947;-59
2022/01/03 09:20:52;;;;;;;24.48;4.85;;;9.90;97.90;;;;;;5018458;28;38751;-59
2022/01/03 09:23:24;;;;;;;23.88;4.97;;;9.90;97.80;;;;;;5016635;28;37953;-59
2022/01/03 09:28:51;;;;;;;24.85;4.82;;;9.90;97.70;;;;;;5017489;28;40086;-59
2022/01/03 09:31:22;;;;;;;29.10;4.25;;;10.00;97.70;;;;;;5015845;28;37615;-59
2022/01/03 09:33:50;;;;;;;29.95;4.80;;;10.10;97.50;;;;;;5016492;28;37307;-59
2022/01/03 09:36:17;;;;;;;31.77;6.10;;;10.10;97.30;;;;;;5015123;28;36203;-59
2022/01/03 09:38:44;;;;;;;25.13;4.28;;;10.10;97.30;;;;;;5015272;28;40114;-59
2022/01/03 09:41:13;;;;;;;27.60;4.60;;;10.10;97.30;;;;;;5015485;28;38044;-59
2022/01/03 09:43:49;;;;;;;34.97;6.13;;;10.10;97.20;;;;;;5016240;28;37888;-59
2022/01/03 09:46:21;;;;;;;25.88;4.72;;;10.20;97.20;;;;;;5018111;28;36740;-59
2022/01/03 09:48:53;;;;;;;31.80;5.40;;;10.30;97.20;;;;;;5019373;28;36374;-59
2022/01/03 09:51:22;;;;;;;26.55;4.55;;;10.40;97.00;;;;;;5020839;28;36055;-59
2022/01/03 09:53:50;;;;;;;28.13;4.88;;;10.40;96.80;;;;;;5020754;28;37685;-59
2022/01/03 09:56:19;;;;;;;27.77;5.30;;;10.40;96.80;;;;;;5020690;28;36401;-59
2022/01/03 09:58:48;;;;;;;30.85;4.88;;;10.40;96.30;;;;;;5019308;28;37437;-59
2022/01/03 10:01:16;;;;;;;28.90;5.05;;;10.50;96.60;;;;;;5020512;28;38227;-58
2022/01/03 10:03:47;;;;;;;30.52;6.30;;;10.50;96.50;;;;;;5020789;28;36217;-59
2022/01/03 10:06:16;;;;;;;29.58;6.05;;;10.60;96.30;;;;;;5020527;28;35413;-59
2022/01/03 10:08:45;;;;;;;22.73;4.25;;;10.60;96.00;;;;;;5020370;28;40094;-59
2022/01/03 10:11:12;;;;;;;21.95;5.50;;;10.70;96.10;;;;;;5021010;28;38657;-59
2022/01/03 10:13:40;;;;;;;28.80;4.72;;;10.70;95.90;;;;;;5021210;28;36283;-59
2022/01/03 10:16:09;;;;;;;28.50;4.50;;;10.80;95.80;;;;;;5020299;28;36546;-59
2022/01/03 10:18:37;;;;;;;28.45;4.38;;;10.80;95.80;;;;;;5019742;28;38402;-59
2022/01/03 10:21:06;;;;;;;32.30;5.28;;;10.90;96.00;;;;;;5018976;28;37855;-59
2022/01/03 10:23:33;;;;;;;37.78;6.00;;;11.00;95.60;;;;;;5019582;28;38128;-59
2022/01/03 10:26:16;;;;;;;30.20;6.78;;;11.00;95.30;;;;;;5018901;28;36422;-59
2022/01/03 10:28:44;;;;;;;27.95;5.82;;;11.00;95.10;;;;;;5017579;28;37517;-59
2022/01/03 10:31:17;;;;;;;30.67;5.65;;;11.00;95.30;;;;;;5019861;28;36407;-59
2022/01/03 10:33:45;;;;;;;25.27;4.35;;;11.10;95.10;;;;;;5020607;28;37571;-59
2022/01/03 10:36:28;;;;;;;28.70;5.13;;;11.10;95.00;;;;;;5019377;28;36905;-59
2022/01/03 10:38:57;;;;;;;23.90;5.87;;;11.10;94.60;;;;;;5018699;28;37934;-59
2022/01/03 10:41:24;;;;;;;31.40;5.28;;;11.10;94.70;;;;;;5018946;28;37727;-59
2022/01/03 10:43:54;;;;;;;25.02;5.15;;;11.10;94.70;;;;;;5020041;28;37150;-59
2022/01/03 10:46:25;;;;;;;34.85;6.13;;;11.10;94.40;;;;;;5020292;28;37077;-59
2022/01/03 10:48:53;;;;;;;26.52;4.88;;;11.00;94.30;;;;;;5019862;28;38367;-59
2022/01/03 10:51:25;;;;;;;23.80;5.75;;;11.10;94.50;;;;;;5020455;28;37678;-59
2022/01/03 10:53:54;;;;;;;30.90;5.00;;;11.00;94.30;;;;;;5020379;28;35383;-59
2022/01/03 10:56:29;;;;;;;31.92;4.82;;;11.00;94.30;;;;;;5020188;28;37061;-59
2022/01/03 10:58:58;;;;;;;26.20;4.75;;;11.00;94.10;;;;;;5020304;28;38434;-59
2022/01/03 11:01:28;;;;;;;25.42;5.35;;;10.90;94.10;;;;;;5019169;28;38355;-59
2022/01/03 11:03:59;;;;;;;29.05;5.00;;;10.90;94.10;;;;;;5020333;28;36179;-59
2022/01/03 11:06:47;;;;;;;25.13;4.50;;;10.90;94.30;;;;;;5018661;28;35951;-59
2022/01/03 11:12:18;;;;;;;28.58;5.15;;;10.80;94.00;;;;;;5019753;28;38797;-59
2022/01/03 11:14:46;;;;;;;21.83;4.72;;;10.90;93.90;;;;;;5018747;28;37289;-59
2022/01/03 11:17:26;;;;;;;24.42;4.25;;;10.80;94.20;;;;;;5019033;28;37015;-59
2022/01/03 11:19:56;;;;;;;25.40;5.10;;;10.80;94.20;;;;;;5017365;28;37011;-59
2022/01/03 11:22:41;;;;;;;27.00;4.75;;;10.80;94.10;;;;;;5017827;28;37839;-59
2022/01/03 11:25:10;;;;;;;23.45;4.13;;;10.80;94.00;;;;;;5018856;28;39060;-59
2022/01/03 11:27:40;;;;;;;26.85;5.13;;;10.80;94.10;;;;;;5019573;28;36681;-59
2022/01/03 11:30:10;;;;;;;23.85;4.32;;;10.80;93.90;;;;;;5018592;28;37358;-59
2022/01/03 11:32:43;;;;;;;24.88;5.38;;;10.80;93.90;;;;;;5017818;28;36253;-59
2022/01/03 11:35:11;;;;;;;29.60;5.03;;;10.80;93.90;;;;;;5019020;28;37411;-58
2022/01/03 11:37:42;;;;;;;26.80;4.70;;;10.80;93.90;;;;;;5018394;28;36564;-59
2022/01/03 11:40:11;;;;;;;19.58;4.10;;;10.80;93.70;;;;;;5018254;28;37639;-59
2022/01/03 11:42:39;;;;;;;34.70;5.18;;;10.90;93.90;;;;;;5020022;28;37494;-59
2022/01/03 11:45:07;;;;;;;20.45;4.70;;;10.90;93.90;;;;;;5019114;28;36059;-59
2022/01/03 11:47:38;;;;;;;24.33;4.10;;;11.10;93.70;;;;;;5019355;28;35869;-59
2022/01/03 11:50:06;;;;;;;24.88;4.32;;;11.10;93.30;;;;;;5018577;28;37697;-59
2022/01/03 11:52:39;;;;;;;20.60;4.47;;;11.10;93.30;;;;;;5019121;28;37475;-59
2022/01/03 11:55:08;;;;;;;24.08;4.03;;;11.10;93.20;;;;;;5019219;28;39003;-59
2022/01/03 11:58:09;;;;;;;25.15;4.68;;;11.20;93.20;;;;;;5017762;28;37409;-59
2022/01/03 12:03:55;;;;;;;29.50;4.72;;;11.20;92.50;;;;;;5018107;28;40970;-58
2022/01/03 12:06:30;;;;;;;24.90;4.30;;;11.10;92.80;;;;;;5018363;28;38727;-59
2022/01/03 12:09:01;;;;;;;22.60;4.15;;;11.10;92.50;;;;;;5018138;28;36196;-59
2022/01/03 12:11:30;;;;;;;26.48;4.35;;;11.10;92.80;;;;;;5017863;28;37615;-59
2022/01/03 12:13:59;;;;;;;23.25;4.90;;;11.00;92.90;;;;;;5016644;28;38946;-59
2022/01/03 12:16:44;;;;;;;21.02;4.60;;;11.00;92.90;;;;;;5017444;28;37592;-59
2022/01/03 12:19:27;;;;;;;20.33;4.13;;;11.00;92.80;;;;;;5017729;28;35411;-59
2022/01/03 12:21:57;;;;;;;20.67;3.70;;;10.90;93.20;;;;;;5017680;28;36878;-59
2022/01/03 12:25:00;;;;;;;28.55;4.75;;;11.00;93.30;;;;;;5014709;28;38069;-59
2022/01/03 12:27:39;;;;;;;18.70;3.35;;;10.90;93.20;;;;;;4940691;28;37516;-59
2022/01/03 12:30:28;;;;;;;22.80;4.60;;;10.90;93.20;;;;;;5009241;28;37204;-60
2022/01/03 12:33:16;;;;;;;20.20;5.25;;;11.00;93.60;;;;;;5017734;28;36354;-59
2022/01/03 12:35:47;;;;;;;27.33;5.22;;;11.00;93.10;;;;;;5018411;28;38966;-59
2022/01/03 12:38:28;;;;;;;35.13;5.13;;;11.10;93.50;;;;;;5018766;28;39104;-59
2022/01/03 12:41:01;;;;;;;26.13;4.63;;;11.10;93.40;;;;;;5018140;28;37011;-59
2022/01/03 12:43:40;;;;;;;29.63;4.60;;;11.20;93.40;;;;;;5017520;28;37359;-59
2022/01/03 12:46:21;;;;;;;23.27;4.95;;;11.20;93.20;;;;;;5018545;28;37990;-59
2022/01/03 12:48:50;;;;;;;20.45;4.30;;;11.20;93.20;;;;;;5017009;28;37579;-59
2022/01/03 12:51:20;;;;;;;26.67;5.05;;;11.20;93.30;;;;;;5018989;28;36681;-59
2022/01/03 12:53:50;;;;;;;26.50;5.28;;;11.30;93.10;;;;;;5018124;28;38599;-59
2022/01/03 12:56:21;;;;;;;32.35;5.13;;;11.30;92.80;;;;;;5018050;28;37532;-59
2022/01/03 12:58:51;;;;;;;25.13;4.20;;;11.30;92.90;;;;;;5017574;28;38754;-59
2022/01/03 13:01:27;;;;;;;30.27;4.63;;;11.30;93.00;;;;;;5016368;28;36987;-59
2022/01/03 13:03:55;;;;;;;26.73;5.07;;;11.30;93.00;;;;;;5015916;28;38542;-59
2022/01/03 13:06:29;;;;;;;24.90;4.18;;;11.20;92.80;;;;;;5016184;28;38968;-59
2022/01/03 13:09:11;;;;;;;27.00;4.88;;;11.20;93.00;;;;;;5017882;28;37681;-59
2022/01/03 13:11:40;;;;;;;29.23;5.78;;;11.20;92.60;;;;;;5016725;28;36245;-59
2022/01/03 13:14:12;;;;;;;30.02;5.32;;;11.10;92.90;;;;;;5018211;28;38395;-59